Time;durP1;ratioP1;P1;durP2;ratioP2;P2;SDS_P1;SDS_P2;PMS_P1;PMS_P2;Temp;Humidity;BMP_temperature;BMP_pressure;BME280_temperature;BME280_humidity;BME280_pressure;Samples;Min_cycle;Max_cycle;Signal;HPM_P1;HPM_P2
2021/10/27 03:14:01;;;;;;;;;;;;;;;7.33;100.00;100481.94;5576400;23;20004;-81
2021/10/27 03:16:27;;;;;;;;;;;;;;;7.32;100.00;100483.69;4977869;28;20940;-81
2021/10/27 03:18:52;;;;;;;;;;;;;;;7.37;100.00;100480.97;4996219;28;19914;-83
2021/10/27 03:21:17;;;;;;;;;;;;;;;7.37;100.00;100478.31;4996131;28;19929;-83
2021/10/27 03:23:42;;;;;;;;;;;;;;;7.38;100.00;100485.34;4978375;28;19918;-81
2021/10/27 03:26:08;;;;;;;;;;;;;;;7.41;100.00;100482.66;4995896;28;19965;-81
2021/10/27 03:28:33;;;;;;;;;;;;;;;7.40;100.00;100489.72;4994687;28;20280;-81
2021/10/27 03:30:59;;;;;;;;;;;;;;;7.40;100.00;100492.34;4978344;28;20300;-81
2021/10/27 03:33:24;;;;;;;;;;;;;;;7.42;100.00;100482.63;4977464;28;19918;-81
2021/10/27 03:35:50;;;;;;;;;;;;;;;7.47;100.00;100482.53;4995897;28;19961;-81
2021/10/27 03:38:16;;;;;;;;;;;;;;;7.48;100.00;100483.41;4995820;28;19968;-82
2021/10/27 03:40:43;;;;;;;;;;;;;;;7.48;100.00;100493.94;4978202;28;19922;-82
2021/10/27 03:43:08;;;;;;;;;;;;;;;7.49;100.00;100490.44;4994285;28;19961;-83
2021/10/27 03:45:33;;;;;;;;;;;;;;;7.51;100.00;100500.03;4995751;28;20008;-81
2021/10/27 03:47:59;;;;;;;;;;;;;;;7.53;100.00;100497.38;4995677;28;20312;-81
2021/10/27 03:50:24;;;;;;;;;;;;;;;7.53;100.00;100502.63;4995469;28;19929;-81
2021/10/27 03:52:49;;;;;;;;;;;;;;;6.81;100.00;100508.28;4995598;28;19991;-80
2021/10/27 03:55:15;;;;;;;;;;;;;;;5.50;100.00;100512.56;4995465;28;19917;-83
2021/10/27 03:57:40;;;;;;;;;;;;;;;4.91;100.00;100515.78;4976942;28;20281;-80
2021/10/27 04:00:06;;;;;;;;;;;;;;;4.58;100.00;100513.38;4995076;28;19918;-82
2021/10/27 04:02:31;;;;;;;;;;;;;;;4.40;100.00;100515.22;4995228;28;19924;-80
2021/10/27 04:04:57;;;;;;;;;;;;;;;4.58;100.00;100518.63;4995628;28;20001;-81
2021/10/27 04:07:22;;;;;;;;;;;;;;;4.53;100.00;100519.53;4995140;28;19918;-81
2021/10/27 04:09:47;;;;;;;;;;;;;;;4.41;100.00;100519.59;4995620;28;19922;-80
2021/10/27 04:12:12;;;;;;;;;;;;;;;4.33;100.00;100526.66;4994993;28;19917;-80
2021/10/27 04:14:38;;;;;;;;;;;;;;;4.24;100.00;100516.19;4990128;28;19922;-80
2021/10/27 04:17:03;;;;;;;;;;;;;;;4.09;100.00;100514.53;4992292;28;19919;-81
2021/10/27 04:19:28;;;;;;;;;;;;;;;4.07;100.00;100516.28;4985002;28;19953;-81
2021/10/27 04:21:54;;;;;;;;;;;;;;;3.97;100.00;100518.06;4985169;28;19918;-81
2021/10/27 04:24:19;;;;;;;;;;;;;;;3.89;100.00;100515.47;4984876;28;19922;-82
2021/10/27 04:26:44;;;;;;;;;;;;;;;3.69;100.00;100515.56;4984049;28;19924;-81
2021/10/27 04:29:10;;;;;;;;;;;;;;;3.60;100.00;100510.34;4984220;28;19926;-81
2021/10/27 04:31:37;;;;;;;;;;;;;;;3.47;100.00;100519.97;4985291;28;19977;-83
2021/10/27 04:34:06;;;;;;;;;;;;;;;3.47;100.00;100527.84;4985158;28;19925;-81
2021/10/27 04:36:31;;;;;;;;;;;;;;;3.42;100.00;100526.97;4984839;28;20329;-82
2021/10/27 04:38:57;;;;;;;;;;;;;;;3.36;100.00;100527.84;4985016;28;19922;-83
2021/10/27 04:41:22;;;;;;;;;;;;;;;3.33;100.00;100535.72;4966892;28;20392;-83
2021/10/27 04:43:48;;;;;;;;;;;;;;;3.24;100.00;100530.50;4983832;28;20008;-80
2021/10/27 04:46:13;;;;;;;;;;;;;;;3.26;100.00;100531.38;4984927;28;19924;-81
2021/10/27 04:48:39;;;;;;;;;;;;;;;3.14;100.00;100532.22;4967233;28;19918;-81
2021/10/27 04:51:04;;;;;;;;;;;;;;;3.15;100.00;100534.00;4984545;28;19925;-82
2021/10/27 04:53:29;;;;;;;;;;;;;;;3.04;100.00;100539.22;4985082;28;19925;-81
2021/10/27 04:55:55;;;;;;;;;;;;;;;3.04;100.00;100531.38;4984747;28;20385;-80
2021/10/27 07:54:28;;;;;;;;;;;;;;;3.03;100.00;100616.06;5007019;28;20460;-85
2021/10/27 07:56:54;;;;;;;;;;;;;;;3.07;100.00;100617.78;4998616;28;20008;-84
2021/10/27 07:59:20;;;;;;;;;;;;;;;3.12;100.00;100617.78;5008738;28;19928;-84
2021/10/27 08:01:46;;;;;;;;;;;;;;;3.12;100.00;100616.94;4987613;28;19957;-82
2021/10/27 08:04:11;;;;;;;;;;;;;;;3.16;100.00;100618.66;4982367;28;19960;-85
2021/10/27 08:06:36;;;;;;;;;;;;;;;3.14;100.00;100616.03;5005367;28;19934;-83
2021/10/27 08:09:03;;;;;;;;;;;;;;;3.20;100.00;100615.19;5005980;28;19921;-84
2021/10/27 08:11:28;;;;;;;;;;;;;;;3.23;100.00;100620.44;5004240;28;19925;-83
2021/10/27 08:13:54;;;;;;;;;;;;;;;3.23;100.00;100618.66;4998608;28;19945;-85
2021/10/27 08:16:19;;;;;;;;;;;;;;;3.25;100.00;100629.16;4986620;28;19925;-82
2021/10/27 08:18:44;;;;;;;;;;;;;;;3.31;100.00;100628.28;4987839;28;20447;-82
2021/10/27 08:21:10;;;;;;;;;;;;;;;3.32;100.00;100630.03;4984570;28;20000;-82
2021/10/27 08:23:39;;;;;;;;;;;;;;;3.36;100.00;100619.53;4985919;28;19922;-82
2021/10/27 08:26:07;;;;;;;;;;;;;;;3.37;100.00;100615.19;4992324;28;19952;-84
2021/10/27 08:28:41;;;;;;;;;;;;;;;3.43;100.00;100617.78;5012887;28;19936;-84
2021/10/27 08:36:06;;;;;;;;;;;;;;;3.51;100.00;100609.94;5010327;28;19931;-82
2021/10/27 08:38:31;;;;;;;;;;;;;;;3.55;100.00;100607.31;4994790;28;19929;-87
2021/10/27 08:40:57;;;;;;;;;;;;;;;3.56;100.00;100602.97;4990546;28;19972;-82
2021/10/27 08:43:23;;;;;;;;;;;;;;;3.60;100.00;100599.44;4991587;28;19928;-82
2021/10/27 08:45:48;;;;;;;;;;;;;;;3.66;100.00;100603.81;4991356;28;19991;-84
2021/10/27 08:48:14;;;;;;;;;;;;;;;3.69;100.00;100604.69;5008155;28;19929;-85
2021/10/27 08:50:40;;;;;;;;;;;;;;;3.69;100.00;100609.91;4994017;28;19925;-81
2021/10/27 08:53:06;;;;;;;;;;;;;;;3.70;100.00;100601.19;4993688;28;19926;-82
2021/10/27 08:55:33;;;;;;;;;;;;;;;3.75;100.00;100599.44;4995392;28;20132;-82
2021/10/27 08:58:00;;;;;;;;;;;;;;;3.76;100.00;100605.53;4995824;28;19921;-83
2021/10/27 09:00:30;;;;;;;;;;;;;;;3.77;100.00;100608.16;4994941;28;19973;-81
2021/10/27 09:08:40;;;;;;;;;;;;;;;3.87;100.00;100602.91;5012982;28;19980;-82
2021/10/27 09:34:32;;;;;;;;;;;;;;;4.14;100.00;100589.69;5012084;28;20606;-82
2021/10/27 09:36:49;;;;;;;;;;;;;;;4.17;100.00;100597.56;5006975;28;19921;-88
2021/10/27 10:06:26;;;;;;;;;;;;;;;4.45;100.00;100586.06;5011446;28;20395;-84
2021/10/27 10:08:52;;;;;;;;;;;;;;;4.47;100.00;100590.44;4993832;28;19921;-84
2021/10/27 10:11:18;;;;;;;;;;;;;;;4.48;100.00;100591.28;4994285;28;19918;-83
2021/10/27 10:13:43;;;;;;;;;;;;;;;4.51;100.00;100594.78;4993082;28;19925;-84
2021/10/27 10:16:09;;;;;;;;;;;;;;;4.54;100.00;100581.63;4992072;28;19932;-83
2021/10/27 10:18:35;;;;;;;;;;;;;;;4.57;100.00;100588.63;5009692;28;19925;-83
2021/10/27 10:21:00;;;;;;;;;;;;;;;4.59;100.00;100592.09;4991322;28;20701;-82
2021/10/27 10:23:26;;;;;;;;;;;;;;;4.62;100.00;100585.97;4993253;28;19934;-83
2021/10/27 10:25:54;;;;;;;;;;;;;;;4.65;100.00;100588.59;5011604;28;19921;-81
2021/10/27 10:28:21;;;;;;;;;;;;;;;4.65;100.00;100580.72;4992391;28;19925;-82
2021/10/27 10:30:51;;;;;;;;;;;;;;;4.67;100.00;100586.81;5012392;28;19941;-81
2021/10/27 10:33:17;;;;;;;;;;;;;;;4.66;100.00;100578.09;5010237;28;19921;-82
2021/10/27 10:38:36;;;;;;;;;;;;;;;4.72;100.00;100579.78;5011918;28;20588;-85
2021/10/27 10:41:50;;;;;;;;;;;;;;;4.75;100.00;100577.13;4994060;28;20380;-82
2021/10/27 10:44:20;;;;;;;;;;;;;;;4.74;100.00;100575.41;4998102;28;19922;-83
2021/10/27 10:58:35;;;;;;;;;;;;;;;4.87;100.00;100571.81;5012505;28;19965;-83
2021/10/27 11:01:22;;;;;;;;;;;;;;;5.16;100.00;100560.22;5010351;28;20359;-82
2021/10/27 11:11:37;;;;;;;;;;;;;;;4.96;100.00;100562.13;4993619;28;19964;-85
2021/10/27 11:22:20;;;;;;;;;;;;;;;5.05;100.00;100559.44;5010807;28;19952;-82
2021/10/27 11:26:27;;;;;;;;;;;;;;;5.07;99.65;100553.28;5009100;28;20028;-82
2021/10/27 11:42:42;;;;;;;;;;;;;;;5.25;99.39;100549.63;5013674;28;19964;-82
2021/10/27 11:45:21;;;;;;;;;;;;;;;5.27;99.38;100552.25;4993702;28;19917;-83
2021/10/27 11:47:48;;;;;;;;;;;;;;;5.27;99.32;100547.84;4996625;28;19921;-82
2021/10/27 11:50:15;;;;;;;;;;;;;;;5.33;99.04;100551.28;4997033;28;19926;-82
2021/10/27 11:52:41;;;;;;;;;;;;;;;5.34;98.81;100547.78;5012081;28;19928;-82
2021/10/27 11:55:08;;;;;;;;;;;;;;;5.33;98.58;100546.03;4996903;28;20283;-82
2021/10/27 11:57:34;;;;;;;;;;;;;;;5.36;98.76;100538.13;5014814;28;20365;-82
2021/10/27 11:59:59;;;;;;;;;;;;;;;5.36;98.58;100535.50;5014822;28;19928;-82
2021/10/27 12:02:26;;;;;;;;;;;;;;;5.40;98.52;100531.97;4996311;28;19965;-85
2021/10/27 12:04:52;;;;;;;;;;;;;;;5.43;98.52;100521.44;5014982;28;19943;-82
2021/10/27 12:07:52;;;;;;;;;;;;;;;5.43;98.59;100516.19;5012857;28;19968;-83
2021/10/27 12:13:04;;;;;;;;;;;;;;;5.44;98.00;100502.13;4933820;29;20314;-81
2021/10/27 12:18:09;;;;;;;;;;;;;;;5.43;97.29;100498.63;5013909;28;19983;-82
2021/10/27 12:20:40;;;;;;;;;;;;;;;5.45;97.09;100493.38;5013491;28;19921;-81
2021/10/27 12:23:16;;;;;;;;;;;;;;;5.52;97.18;100500.31;5013424;28;19975;-82
2021/10/27 12:25:41;;;;;;;;;;;;;;;5.51;97.23;100490.69;5014350;28;19943;-84
2021/10/27 12:28:20;;;;;;;;;;;;;;;5.50;97.49;100481.03;4996625;28;20411;-84
2021/10/27 12:30:46;;;;;;;;;;;;;;;5.59;97.95;100474.81;5014343;28;19969;-82
2021/10/27 12:33:11;;;;;;;;;;;;;;;5.60;98.26;100472.19;4996144;28;19965;-81
2021/10/27 12:35:37;;;;;;;;;;;;;;;5.61;98.43;100473.03;4995371;28;19929;-83
2021/10/27 12:38:13;;;;;;;;;;;;;;;5.61;98.33;100460.75;5013117;28;20020;-82
2021/10/27 12:40:42;;;;;;;;;;;;;;;5.66;98.60;100460.69;4996622;28;20525;-82
2021/10/27 12:43:12;;;;;;;;;;;;;;;5.68;98.98;100458.94;5013674;28;20384;-81
2021/10/27 12:45:45;;;;;;;;;;;;;;;5.74;99.22;100456.22;5013705;28;20028;-82
2021/10/27 12:48:14;;;;;;;;;;;;;;;5.78;99.50;100452.66;5013126;28;19925;-82
2021/10/27 12:50:51;;;;;;;;;;;;;;;5.80;99.97;100435.09;5012083;28;19935;-81
2021/10/27 12:53:28;;;;;;;;;;;;;;;5.89;100.00;100452.53;5013985;28;19976;-84
2021/10/27 12:56:02;;;;;;;;;;;;;;;5.85;100.00;100449.97;4994979;28;20427;-85
2021/10/27 12:58:31;;;;;;;;;;;;;;;5.78;100.00;100438.66;5012008;28;19943;-82
2021/10/27 13:19:20;;;;;;;;;;;;;;;5.34;100.00;100416.41;5011960;28;19926;-82
2021/10/27 13:29:31;;;;;;;;;;;;;;;5.62;100.00;100420.44;5012351;28;19931;-81
2021/10/27 13:29:54;;;;;;;;;;;;;;;6.09;100.00;100409.31;5011663;28;20291;-82
2021/10/27 13:32:23;;;;;;;;;;;;;;;6.25;100.00;100402.94;5012093;28;20276;-81
2021/10/27 13:34:49;;;;;;;;;;;;;;;6.35;100.00;100409.81;5011975;28;20368;-83
2021/10/27 13:37:15;;;;;;;;;;;;;;;6.38;100.00;100405.38;5010795;28;19921;-82
2021/10/27 13:39:41;;;;;;;;;;;;;;;6.45;100.00;100401.78;5012441;28;19917;-82
2021/10/27 13:42:27;;;;;;;;;;;;;;;6.52;100.00;100403.41;5011902;28;19929;-82
2021/10/27 13:58:39;;;;;;;;;;;;;;;6.75;100.00;100375.81;5013261;28;20008;-84
2021/10/27 14:09:13;;;;;;;;;;;;;;;6.87;100.00;100375.59;5011720;28;19964;-82
2021/10/27 14:14:35;;;;;;;;;;;;;;;6.92;100.00;100365.81;5012816;28;19924;-84
2021/10/27 15:21:13;;;;;;;;;;;;;;;2.58;95.41;100324.63;5013494;28;20017;-82
2021/10/27 15:23:53;;;;;;;;;;;;;;;2.50;95.00;100323.78;4994420;28;19929;-81
2021/10/27 15:32:06;;;;;;;;;;;;;;;2.38;94.61;100329.00;5014198;28;20300;-82
2021/10/27 15:42:42;;;;;;;;;;;;;;;2.36;94.70;100323.78;5015439;28;19948;-82
2021/10/27 15:45:34;;;;;;;;;;;;;;;2.31;94.12;100328.16;5012791;28;20012;-82
2021/10/27 15:50:48;;;;;;;;;;;;;;;2.10;93.26;100329.03;5014225;28;20300;-82
2021/10/27 15:53:14;;;;;;;;;;;;;;;2.12;93.08;100332.50;5015093;28;19995;-84
2021/10/27 15:55:39;;;;;;;;;;;;;;;2.05;93.07;100325.56;5015072;28;20361;-82
2021/10/27 15:58:05;;;;;;;;;;;;;;;2.12;93.02;100320.34;5015056;28;19913;-82
2021/10/27 16:00:30;;;;;;;;;;;;;;;2.12;92.72;100324.66;5014687;28;19921;-82
2021/10/27 16:02:56;;;;;;;;;;;;;;;2.07;92.80;100319.44;5014729;28;20024;-83
2021/10/27 16:05:25;;;;;;;;;;;;;;;2.05;92.45;100325.56;5015006;28;20308;-82
2021/10/27 16:07:51;;;;;;;;;;;;;;;1.93;91.73;100327.28;5013515;28;19917;-83
2021/10/27 16:10:19;;;;;;;;;;;;;;;1.94;91.98;100330.75;5014794;28;19917;-81
2021/10/27 16:12:44;;;;;;;;;;;;;;;1.99;92.35;100329.91;5014218;28;19917;-82
2021/10/27 16:15:18;;;;;;;;;;;;;;;1.90;91.86;100332.50;5014821;28;19917;-83
2021/10/27 16:17:43;;;;;;;;;;;;;;;1.85;91.48;100325.50;5014186;28;19961;-84
2021/10/27 16:20:09;;;;;;;;;;;;;;;1.83;91.05;100325.50;5012791;28;19936;-82
2021/10/27 16:22:35;;;;;;;;;;;;;;;1.95;91.98;100330.75;5011875;28;19918;-83
2021/10/27 16:25:01;;;;;;;;;;;;;;;1.77;90.94;100321.16;4993681;28;19929;-82
2021/10/27 16:27:26;;;;;;;;;;;;;;;1.78;90.46;100325.50;5013864;28;19925;-83
2021/10/27 16:29:51;;;;;;;;;;;;;;;1.71;90.35;100331.59;5012796;28;20257;-84
2021/10/27 16:32:17;;;;;;;;;;;;;;;1.72;90.58;100327.25;5014027;28;20391;-84
2021/10/27 16:34:43;;;;;;;;;;;;;;;1.66;91.01;100327.22;5013610;28;19973;-82
2021/10/27 16:37:09;;;;;;;;;;;;;;;1.70;90.85;100332.47;5012677;28;19972;-85
2021/10/27 16:39:35;;;;;;;;;;;;;;;1.65;90.96;100328.09;5014209;28;19924;-83
2021/10/27 16:42:00;;;;;;;;;;;;;;;1.61;90.92;100329.81;4995800;28;20266;-83
2021/10/27 16:44:25;;;;;;;;;;;;;;;1.61;90.78;100322.88;5014152;28;19925;-83
2021/10/27 16:46:50;;;;;;;;;;;;;;;2.08;92.43;100325.56;5014121;28;19917;-82
2021/10/27 16:49:17;;;;;;;;;;;;;;;2.24;93.64;100322.06;5014256;28;19964;-82
2021/10/27 16:51:42;;;;;;;;;;;;;;;2.29;95.30;100322.91;5012875;28;19933;-82
2021/10/27 16:54:07;;;;;;;;;;;;;;;2.47;99.95;100323.78;5013954;28;19925;-83
2021/10/27 16:56:33;;;;;;;;;;;;;;;2.66;100.00;100322.88;5014095;28;20357;-82
2021/10/27 16:58:59;;;;;;;;;;;;;;;2.75;100.00;100323.75;5013944;28;19991;-82
2021/10/27 17:01:24;;;;;;;;;;;;;;;2.81;100.00;100324.59;5013012;28;19924;-85
2021/10/27 17:03:50;;;;;;;;;;;;;;;2.87;100.00;100323.69;5013231;28;19917;-83
2021/10/27 17:06:15;;;;;;;;;;;;;;;3.00;100.00;100327.16;5012675;28;19925;-82
2021/10/27 17:08:42;;;;;;;;;;;;;;;2.98;100.00;100334.13;4995787;28;20284;-82
2021/10/27 17:11:07;;;;;;;;;;;;;;;3.03;100.00;100317.56;5013682;28;19928;-83
2021/10/27 17:13:33;;;;;;;;;;;;;;;3.07;100.00;100319.28;5013739;28;19917;-82
2021/10/27 17:15:58;;;;;;;;;;;;;;;3.06;100.00;100314.94;4996123;28;19918;-82
2021/10/27 17:18:24;;;;;;;;;;;;;;;3.08;100.00;100325.41;5013728;28;19918;-84
2021/10/27 17:20:49;;;;;;;;;;;;;;;3.17;100.00;100321.84;5012258;28;19963;-82
2021/10/27 17:23:18;;;;;;;;;;;;;;;3.14;100.00;100322.72;5013560;28;19918;-83
2021/10/27 17:25:44;;;;;;;;;;;;;;;3.14;100.00;100327.09;5013550;28;19918;-85
2021/10/27 17:28:09;;;;;;;;;;;;;;;3.20;100.00;100333.19;5013190;28;19924;-82
2021/10/27 17:30:36;;;;;;;;;;;;;;;3.21;100.00;100329.69;5013450;28;20012;-82
2021/10/27 17:33:02;;;;;;;;;;;;;;;3.23;100.00;100322.69;5012416;28;19967;-85
2021/10/27 17:35:28;;;;;;;;;;;;;;;3.26;100.00;100327.06;4995428;28;20368;-85
2021/10/27 17:37:53;;;;;;;;;;;;;;;3.30;100.00;100323.53;4993938;28;19996;-83
2021/10/27 17:42:49;;;;;;;;;;;;;;;3.26;100.00;100324.44;5012374;28;19965;-82
2021/10/27 17:45:18;;;;;;;;;;;;;;;3.33;100.00;100315.66;5013028;28;19922;-82
2021/10/27 17:47:50;;;;;;;;;;;;;;;3.36;100.00;100318.28;5013171;28;20399;-82
2021/10/27 17:50:33;;;;;;;;;;;;;;;3.37;100.00;100314.78;5012988;28;20369;-82
2021/10/27 18:00:33;;;;;;;;;;;;;;;3.47;100.00;100318.22;5012715;28;20357;-83
2021/10/27 18:02:58;;;;;;;;;;;;;;;3.50;100.00;100314.72;5011068;28;20012;-83
2021/10/27 18:05:26;;;;;;;;;;;;;;;3.50;100.00;100314.72;5012741;28;19918;-82
2021/10/27 18:07:52;;;;;;;;;;;;;;;3.53;100.00;100310.34;5010995;28;20296;-83
2021/10/27 18:10:18;;;;;;;;;;;;;;;3.57;100.00;100317.28;5012016;28;19922;-83
2021/10/27 18:12:43;;;;;;;;;;;;;;;3.59;100.00;100315.53;5012588;28;19961;-84
2021/10/27 18:15:10;;;;;;;;;;;;;;;3.67;100.00;100307.63;5012331;28;19925;-82
2021/10/27 18:17:38;;;;;;;;;;;;;;;3.69;100.00;100310.25;5012209;28;19921;-82
2021/10/27 18:20:12;;;;;;;;;;;;;;;3.71;100.00;100311.97;5012422;28;19979;-82
2021/10/27 18:25:18;;;;;;;;;;;;;;;3.72;100.00;100310.19;5011837;28;19991;-83
2021/10/27 18:38:32;;;;;;;;;;;;;;;3.89;100.00;100295.22;5010912;28;19975;-84
2021/10/27 18:41:06;;;;;;;;;;;;;;;3.90;100.00;100299.59;5011261;28;20277;-83
2021/10/27 18:43:31;;;;;;;;;;;;;;;3.94;100.00;100300.44;5010714;28;19921;-84
2021/10/27 18:45:59;;;;;;;;;;;;;;;3.97;100.00;100292.56;5010499;28;19921;-83
2021/10/27 18:48:25;;;;;;;;;;;;;;;4.00;100.00;100289.91;5011301;28;19921;-83
2021/10/27 18:51:04;;;;;;;;;;;;;;;4.02;100.00;100292.53;5009808;28;19918;-85
2021/10/27 18:56:32;;;;;;;;;;;;;;;4.08;100.00;100282.84;5011314;28;19975;-82
2021/10/27 19:01:39;;;;;;;;;;;;;;;4.16;100.00;100285.41;5010145;28;19932;-83
2021/10/27 19:12:09;;;;;;;;;;;;;;;4.27;100.00;100277.44;5010993;28;19964;-83
2021/10/27 19:17:06;;;;;;;;;;;;;;;4.34;100.00;100271.25;5010428;28;20106;-83
2021/10/27 19:19:31;;;;;;;;;;;;;;;4.35;100.00;100276.47;5011033;28;19917;-83
2021/10/27 19:21:57;;;;;;;;;;;;;;;4.40;100.00;100273.81;4991603;28;19924;-83
2021/10/27 19:24:32;;;;;;;;;;;;;;;4.42;100.00;100272.06;5011102;28;19933;-83
2021/10/27 19:27:04;;;;;;;;;;;;;;;4.41;100.00;100267.69;5010454;28;20008;-83
2021/10/27 19:29:34;;;;;;;;;;;;;;;4.46;100.00;100267.66;5010678;28;20372;-83
2021/10/27 19:35:08;;;;;;;;;;;;;;;4.51;100.00;100266.69;5010314;28;20458;-83
2021/10/27 20:50:01;;;;;;;;;;;;;;;5.21;94.17;100240.47;5013252;28;20023;-82
2021/10/27 20:52:38;;;;;;;;;;;;;;;5.22;93.89;100244.00;5011651;28;19929;-82
2021/10/27 20:55:05;;;;;;;;;;;;;;;5.23;93.69;100248.34;5012771;28;19992;-81
2021/10/27 20:57:37;;;;;;;;;;;;;;;5.25;93.81;100241.34;5012935;28;19926;-82
2021/10/27 21:00:32;;;;;;;;;;;;;;;5.26;93.43;100238.69;5011816;28;20479;-81
2021/10/27 21:13:54;;;;;;;;;;;;;;;5.37;93.01;100229.78;5012865;28;19992;-82
2021/10/27 21:16:19;;;;;;;;;;;;;;;5.41;92.76;100228.84;5012486;28;20312;-84
2021/10/27 21:18:44;;;;;;;;;;;;;;;5.41;92.54;100228.84;5012843;28;19947;-82
2021/10/27 21:21:09;;;;;;;;;;;;;;;5.42;92.51;100227.94;5011246;28;19917;-83
2021/10/27 21:23:35;;;;;;;;;;;;;;;5.46;92.64;100224.38;5012778;28;19918;-82
2021/10/27 21:26:02;;;;;;;;;;;;;;;5.48;92.73;100229.63;5012737;28;19945;-82
2021/10/27 21:31:09;;;;;;;;;;;;;;;5.55;92.82;100237.41;5012751;28;19924;-82
2021/10/27 21:34:17;;;;;;;;;;;;;;;5.55;93.28;100232.13;5011739;28;19913;-81
2021/10/27 21:42:25;;;;;;;;;;;;;;;5.62;93.27;100225.88;5012115;28;20044;-83
2021/10/27 21:44:50;;;;;;;;;;;;;;;5.61;93.33;100224.13;5012186;28;19917;-83
2021/10/27 21:47:16;;;;;;;;;;;;;;;5.64;93.28;100218.81;4994413;28;19921;-83
2021/10/27 21:49:42;;;;;;;;;;;;;;;5.67;93.16;100211.81;5012276;28;19917;-82
2021/10/27 21:52:07;;;;;;;;;;;;;;;5.67;93.26;100217.06;5010764;28;20364;-84
2021/10/27 21:54:33;;;;;;;;;;;;;;;5.69;93.14;100217.91;5011984;28;20028;-82
2021/10/27 21:57:00;;;;;;;;;;;;;;;5.69;93.16;100210.00;5012137;28;19928;-84
2021/10/27 21:59:25;;;;;;;;;;;;;;;5.74;92.99;100213.44;5011094;28;19939;-83
2021/10/27 22:01:52;;;;;;;;;;;;;;;5.75;93.18;100208.16;5011787;28;20361;-84
2021/10/27 22:04:17;;;;;;;;;;;;;;;5.76;93.03;100206.38;4977310;28;20009;-83
2021/10/27 22:06:42;;;;;;;;;;;;;;;5.78;93.07;100205.47;5010646;28;20304;-84
2021/10/27 22:09:07;;;;;;;;;;;;;;;5.79;93.06;100198.44;5011722;28;19921;-82
2021/10/27 22:11:34;;;;;;;;;;;;;;;5.81;93.09;100194.91;5011809;28;20288;-83
2021/10/27 22:13:59;;;;;;;;;;;;;;;5.81;93.15;100191.41;5011825;28;20443;-84
2021/10/27 22:16:25;;;;;;;;;;;;;;;5.86;93.26;100189.56;5011383;28;20047;-82
2021/10/27 22:18:50;;;;;;;;;;;;;;;5.81;93.32;100196.66;5011740;28;20392;-83
2021/10/27 22:21:15;;;;;;;;;;;;;;;5.86;93.69;100194.81;5010471;28;19918;-83
2021/10/27 22:23:40;;;;;;;;;;;;;;;5.86;93.38;100188.72;5011353;28;20019;-84
2021/10/27 22:26:06;;;;;;;;;;;;;;;5.88;93.42;100193.03;5011676;28;20292;-82
